createdAt,value
2023-04-23T00:01:50.268Z,100195.16
2023-04-23T00:04:18.702Z,100184.63
2023-04-23T00:06:48.104Z,100195.03
2023-04-23T00:09:16.930Z,100191.81
2023-04-23T00:11:43.907Z,100179.78
2023-04-23T00:14:11.454Z,100185.19
2023-04-23T00:16:39.952Z,100185.31
2023-04-23T00:19:06.829Z,100179.91
2023-04-23T00:21:33.772Z,100179.91
2023-04-23T00:24:00.317Z,100176.31
2023-04-23T00:26:26.896Z,100168.31
2023-04-23T00:28:53.419Z,100161.53
2023-04-23T00:31:20.051Z,100162.09
2023-04-23T00:33:46.673Z,100162.66
2023-04-23T00:36:13.319Z,100160.84
2023-04-23T00:38:40.067Z,100160.72
2023-04-23T00:41:19.893Z,100158.78
2023-04-23T00:43:47.487Z,100165.59
2023-04-23T00:46:14.404Z,100163.78
2023-04-23T00:48:41.909Z,100159.22
2023-04-23T00:51:11.589Z,100156.59
2023-04-23T00:53:38.319Z,100159.94
2023-04-23T00:56:05.874Z,100153.72
2023-04-23T00:58:33.172Z,100151.91
2023-04-23T01:01:01.933Z,100158.28
2023-04-23T01:03:29.870Z,100152.91
2023-04-23T01:05:56.828Z,100154.66
2023-04-23T01:08:25.788Z,100149.69
2023-04-23T01:10:53.693Z,100152.72
2023-04-23T01:13:22.422Z,100156.00
2023-04-23T01:15:49.634Z,100150.44
2023-04-23T01:18:16.307Z,100151.13
2023-04-23T01:20:43.789Z,100154.56
2023-04-23T01:23:10.957Z,100159.50
2023-04-23T01:25:37.965Z,100161.44
2023-04-23T01:28:06.826Z,100163.94
2023-04-23T01:30:34.012Z,100158.09
2023-04-23T01:33:02.270Z,100137.34
2023-04-23T01:35:30.067Z,100143.09
2023-04-23T01:37:59.113Z,100144.66
2023-04-23T01:40:25.824Z,100142.16
2023-04-23T01:42:53.256Z,100135.75
2023-04-23T01:45:20.198Z,100148.75
2023-04-23T01:47:48.028Z,100144.97
2023-04-23T01:50:15.040Z,100142.63
2023-04-23T01:52:42.970Z,100140.88
2023-04-23T01:55:10.055Z,100138.63
2023-04-23T01:57:36.756Z,100130.38
2023-04-23T02:00:12.151Z,100125.97
2023-04-23T02:02:41.136Z,100127.44
2023-04-23T02:05:13.492Z,100119.13
2023-04-23T02:07:40.268Z,100124.50
2023-04-23T02:10:08.232Z,100122.44
2023-04-23T02:12:35.114Z,100128.34
2023-04-23T02:15:01.785Z,100122.25
2023-04-23T02:17:29.393Z,100128.34
2023-04-23T02:19:56.768Z,100130.38
2023-04-23T02:22:25.214Z,100126.94
2023-04-23T02:24:53.160Z,100141.22
2023-04-23T02:27:20.540Z,100134.69
2023-04-23T02:29:49.635Z,100136.22
2023-04-23T02:32:16.286Z,100140.75
2023-04-23T02:34:43.708Z,100139.00
2023-04-23T02:37:10.972Z,100141.00
2023-04-23T02:39:39.348Z,100133.25
2023-04-23T02:42:06.526Z,100141.94
2023-04-23T02:44:33.494Z,100131.44
2023-04-23T02:47:00.753Z,100138.47
2023-04-23T02:49:28.375Z,100134.34
2023-04-23T02:51:55.543Z,100128.63
2023-04-23T02:54:22.386Z,100128.34
2023-04-23T02:56:49.068Z,100123.97
2023-04-23T02:59:15.847Z,100132.53
2023-04-23T03:01:42.505Z,100119.41
2023-04-23T03:04:09.318Z,100128.22
2023-04-23T03:06:37.083Z,100123.97
2023-04-23T03:09:04.092Z,100116.09
2023-04-23T03:11:30.845Z,100123.72
2023-04-23T03:13:57.470Z,100112.63
2023-04-23T03:16:24.178Z,100129.09
2023-04-23T03:18:50.895Z,100120.50
2023-04-23T03:21:17.506Z,100121.59
2023-04-23T03:23:44.435Z,100116.69
2023-04-23T03:26:12.534Z,100118.63
2023-04-23T03:28:39.470Z,100115.28
2023-04-23T03:31:06.084Z,100116.00
2023-04-23T03:33:33.714Z,100116.84
2023-04-23T03:36:00.921Z,100121.00
2023-04-23T03:38:27.679Z,100107.06
2023-04-23T03:40:54.626Z,100114.53
2023-04-23T03:43:21.320Z,100116.09
2023-04-23T03:45:47.992Z,100113.47
2023-04-23T03:48:14.620Z,100112.50
2023-04-23T03:50:41.268Z,100106.31
2023-04-23T03:53:09.993Z,100103.56
2023-04-23T03:55:37.184Z,100108.56
2023-04-23T03:58:04.584Z,100100.69
2023-04-23T04:00:31.359Z,100097.69
2023-04-23T04:02:58.182Z,100096.72
2023-04-23T04:05:25.001Z,100105.41
2023-04-23T04:07:51.724Z,100103.63
2023-04-23T04:10:20.119Z,100104.47
2023-04-23T04:12:48.172Z,100096.97
2023-04-23T04:15:17.105Z,100103.25
2023-04-23T04:17:45.964Z,100092.31
2023-04-23T04:20:13.403Z,100100.63
2023-04-23T04:22:40.000Z,100095.03
2023-04-23T04:25:07.370Z,100104.06
2023-04-23T04:27:34.703Z,100103.00
2023-04-23T04:30:03.353Z,100112.41
2023-04-23T04:32:30.299Z,100101.78
2023-04-23T04:34:57.309Z,100101.91
2023-04-23T04:37:24.371Z,100107.03
2023-04-23T04:39:51.344Z,100122.91
2023-04-23T04:42:18.046Z,100122.53
2023-04-23T04:44:44.686Z,100123.88
2023-04-23T04:47:13.430Z,100110.31
2023-04-23T04:49:40.035Z,100121.25
2023-04-23T04:52:06.642Z,100118.63
2023-04-23T04:54:33.369Z,100108.84
2023-04-23T04:57:00.843Z,100115.50
2023-04-23T04:59:27.430Z,100121.44
2023-04-23T05:01:54.880Z,100123.81
2023-04-23T05:04:21.575Z,100125.94
2023-04-23T05:06:48.191Z,100132.50
2023-04-23T05:09:14.837Z,100136.53
2023-04-23T05:11:42.186Z,100139.97
2023-04-23T05:14:09.409Z,100138.78
2023-04-23T05:16:36.159Z,100136.59
2023-04-23T05:19:02.791Z,100133.38
2023-04-23T05:21:29.574Z,100134.34
2023-04-23T05:23:56.191Z,100132.44
2023-04-23T05:26:22.781Z,100137.81
2023-04-23T05:28:49.461Z,100138.34
2023-04-23T05:31:16.300Z,100143.13
2023-04-23T05:33:49.794Z,100140.56
2023-04-23T05:36:16.894Z,100137.47
2023-04-23T05:38:43.458Z,100137.22
2023-04-23T05:41:10.474Z,100131.16
2023-04-23T05:43:37.079Z,100139.41
2023-04-23T05:46:06.526Z,100135.63
2023-04-23T05:48:34.076Z,100131.16
2023-04-23T05:51:00.899Z,100133.78
2023-04-23T05:53:28.726Z,100131.03
2023-04-23T05:55:55.461Z,100136.69
2023-04-23T05:58:22.215Z,100143.81
2023-04-23T06:00:49.880Z,100134.81
2023-04-23T06:03:16.857Z,100142.78
2023-04-23T06:05:43.688Z,100141.00
2023-04-23T06:08:10.362Z,100147.16
2023-04-23T06:10:37.107Z,100130.75
2023-04-23T06:13:03.829Z,100140.59
2023-04-23T06:15:30.869Z,100155.16
2023-04-23T06:17:57.808Z,100151.53
2023-04-23T06:20:25.411Z,100143.38
2023-04-23T06:22:52.059Z,100160.97
2023-04-23T06:25:18.764Z,100152.66
2023-04-23T06:27:45.363Z,100155.97
2023-04-23T06:30:12.476Z,100159.97
2023-04-23T06:32:39.108Z,100157.16
2023-04-23T06:35:07.628Z,100156.28
2023-04-23T06:37:35.033Z,100153.28
2023-04-23T06:40:01.926Z,100162.44
2023-04-23T06:42:28.645Z,100155.22
2023-04-23T06:44:55.494Z,100162.69
2023-04-23T06:47:22.150Z,100161.44
2023-04-23T06:49:48.770Z,100161.53
2023-04-23T06:52:16.454Z,100168.97
2023-04-23T06:54:43.267Z,100161.78
2023-04-23T06:57:10.424Z,100158.06
2023-04-23T06:59:37.294Z,100166.25
2023-04-23T07:02:04.138Z,100160.16
2023-04-23T07:04:31.344Z,100158.09
2023-04-23T07:06:58.446Z,100168.19
2023-04-23T07:09:25.087Z,100153.88
2023-04-23T07:11:51.692Z,100169.41
2023-04-23T07:14:18.303Z,100166.34
2023-04-23T07:16:44.960Z,100169.41
2023-04-23T07:19:11.587Z,100169.97
2023-04-23T07:21:42.200Z,100167.72
2023-04-23T07:24:09.005Z,100167.34
2023-04-23T07:26:36.227Z,100173.19
2023-04-23T07:29:08.469Z,100173.06
2023-04-23T07:31:35.137Z,100164.47
2023-04-23T07:34:01.879Z,100169.44
2023-04-23T07:36:28.941Z,100169.72
2023-04-23T07:38:56.035Z,100174.97
2023-04-23T07:41:22.854Z,100166.53
2023-04-23T07:43:49.604Z,100175.22
2023-04-23T07:46:16.436Z,100178.22
2023-04-23T07:48:43.142Z,100175.22
2023-04-23T07:51:09.907Z,100181.56
2023-04-23T07:53:36.701Z,100179.38
2023-04-23T07:56:03.386Z,100180.09
2023-04-23T07:58:30.027Z,100179.38
2023-04-23T08:00:56.809Z,100176.63
2023-04-23T08:03:24.205Z,100179.00
2023-04-23T08:05:51.186Z,100174.63
2023-04-23T08:08:17.798Z,100167.94
2023-04-23T08:10:45.260Z,100177.28
2023-04-23T08:13:12.084Z,100177.56
2023-04-23T08:15:38.758Z,100185.41
2023-04-23T08:18:06.043Z,100187.25
2023-04-23T08:20:35.557Z,100180.63
2023-04-23T08:23:02.258Z,100189.50
2023-04-23T08:25:28.830Z,100184.66
2023-04-23T08:27:55.431Z,100190.91
2023-04-23T08:30:22.139Z,100182.13
2023-04-23T08:32:55.849Z,100186.91
2023-04-23T08:35:23.431Z,100182.78
2023-04-23T08:37:50.075Z,100187.00
2023-04-23T08:40:17.183Z,100184.25
2023-04-23T08:42:50.978Z,100186.72
2023-04-23T08:45:18.635Z,100180.25
2023-04-23T08:47:45.601Z,100185.34
2023-04-23T08:50:14.457Z,100189.16
2023-04-23T08:52:46.497Z,100190.22
2023-04-23T08:55:15.167Z,100192.59
2023-04-23T08:57:42.669Z,100193.25
2023-04-23T09:00:11.758Z,100197.13
2023-04-23T09:02:41.792Z,100198.53
2023-04-23T09:05:09.311Z,100204.59
2023-04-23T09:07:36.860Z,100204.28
2023-04-23T09:10:06.012Z,100199.03
2023-04-23T09:12:34.997Z,100212.34
2023-04-23T09:15:02.177Z,100210.44
2023-04-23T09:17:30.790Z,100215.13
2023-04-23T09:19:58.341Z,100216.34
2023-04-23T09:22:41.299Z,100225.13
2023-04-23T09:25:10.898Z,100229.97
2023-04-23T09:27:37.913Z,100230.34
2023-04-23T09:30:09.936Z,100229.53
2023-04-23T09:32:41.543Z,100220.88
2023-04-23T09:35:10.674Z,100232.66
2023-04-23T09:37:50.427Z,100239.81
2023-04-23T09:43:10.567Z,100245.88
2023-04-23T09:45:37.354Z,100254.78
2023-04-23T09:48:04.184Z,100253.84
2023-04-23T09:50:39.183Z,100249.97
2023-04-23T09:53:07.843Z,100259.44
2023-04-23T09:55:39.917Z,100254.00
2023-04-23T09:58:11.496Z,100251.69
2023-04-23T10:00:39.613Z,100256.50
2023-04-23T10:03:12.689Z,100258.97
2023-04-23T10:05:59.672Z,100260.56
2023-04-23T10:08:39.990Z,100261.91
2023-04-23T10:18:11.417Z,100262.22
2023-04-23T10:20:43.978Z,100253.16
2023-04-23T10:23:17.769Z,100259.38
2023-04-23T10:25:47.358Z,100261.41
2023-04-23T10:28:23.536Z,100269.34
2023-04-23T10:30:50.661Z,100264.88
2023-04-23T10:33:29.073Z,100269.63
2023-04-23T10:35:57.704Z,100269.63
2023-04-23T10:38:28.210Z,100274.38
2023-04-23T10:40:58.830Z,100263.97
2023-04-23T10:43:25.850Z,100258.53
2023-04-23T10:45:53.841Z,100264.94
2023-04-23T10:48:20.891Z,100270.91
2023-04-23T10:51:02.307Z,100273.53
2023-04-23T10:53:32.434Z,100282.13
2023-04-23T10:56:10.094Z,100280.59
2023-04-23T10:58:51.364Z,100281.13
2023-04-23T11:01:18.964Z,100271.13
2023-04-23T11:03:45.814Z,100271.16
2023-04-23T11:06:15.796Z,100272.56
2023-04-23T11:08:56.838Z,100270.03
2023-04-23T11:11:41.219Z,100278.25
2023-04-23T11:14:14.481Z,100278.50
2023-04-23T11:16:41.294Z,100273.09
2023-04-23T11:19:12.753Z,100275.34
2023-04-23T11:22:06.230Z,100287.25
2023-04-23T11:24:46.195Z,100283.78
2023-04-23T11:27:16.582Z,100277.94
2023-04-23T11:29:45.619Z,100282.41
2023-04-23T11:32:14.312Z,100280.88
2023-04-23T11:34:44.857Z,100277.41
2023-04-23T11:37:26.848Z,100289.06
2023-04-23T11:39:53.478Z,100279.63
2023-04-23T11:42:20.378Z,100282.09
2023-04-23T11:44:47.983Z,100267.91
2023-04-23T11:47:16.528Z,100286.09
2023-04-23T11:49:45.046Z,100279.19
2023-04-23T11:52:12.812Z,100276.59
2023-04-23T11:54:42.826Z,100274.09
2023-04-23T11:57:10.355Z,100263.56
2023-04-23T11:59:37.682Z,100277.22
2023-04-23T12:02:04.960Z,100276.53
2023-04-23T12:04:33.182Z,100273.38
2023-04-23T12:07:00.233Z,100274.81
2023-04-23T12:09:29.275Z,100285.44
2023-04-23T12:11:58.521Z,100282.06
2023-04-23T12:14:30.835Z,100286.72
2023-04-23T12:16:58.978Z,100286.25
2023-04-23T12:19:31.580Z,100287.94
2023-04-23T12:22:03.131Z,100299.41
2023-04-23T12:24:32.015Z,100295.22
2023-04-23T12:27:02.705Z,100293.44
2023-04-23T12:29:30.970Z,100297.75
2023-04-23T12:32:00.957Z,100298.78
2023-04-23T12:34:27.765Z,100299.91
2023-04-23T12:36:57.486Z,100292.00
2023-04-23T12:39:34.187Z,100283.47
2023-04-23T12:42:05.962Z,100282.16
2023-04-23T12:44:37.534Z,100276.75
2023-04-23T12:47:05.528Z,100278.56
2023-04-23T12:49:33.248Z,100273.13
2023-04-23T12:52:02.386Z,100267.22
2023-04-23T12:54:33.219Z,100276.88
2023-04-23T12:57:03.088Z,100261.47
2023-04-23T12:59:31.424Z,100266.44
2023-04-23T13:02:02.312Z,100253.84
2023-04-23T13:04:30.398Z,100258.97
2023-04-23T13:06:57.161Z,100258.63
2023-04-23T13:09:26.770Z,100258.97
2023-04-23T13:11:54.715Z,100255.03
2023-04-23T13:14:21.935Z,100256.75
2023-04-23T13:16:49.075Z,100246.91
2023-04-23T13:19:17.498Z,100248.13
2023-04-23T13:21:44.946Z,100245.47
2023-04-23T13:24:11.615Z,100248.31
2023-04-23T13:26:38.610Z,100251.94
2023-04-23T13:29:05.638Z,100245.19
2023-04-23T13:31:32.786Z,100232.47
2023-04-23T13:34:01.589Z,100243.50
2023-04-23T13:36:28.496Z,100232.63
2023-04-23T13:38:55.402Z,100230.63
2023-04-23T13:41:22.065Z,100231.97
2023-04-23T13:43:48.661Z,100226.50
2023-04-23T13:46:15.406Z,100225.66
2023-04-23T13:48:42.005Z,100229.78
2023-04-23T13:51:21.378Z,100221.78
2023-04-23T13:53:54.148Z,100223.31
2023-04-23T13:56:21.039Z,100219.94
2023-04-23T13:58:48.960Z,100215.31
2023-04-23T14:01:15.872Z,100216.75
2023-04-23T14:03:43.151Z,100206.28
2023-04-23T14:06:09.741Z,100208.53
2023-04-23T14:08:37.205Z,100207.72
2023-04-23T14:11:04.696Z,100206.38
2023-04-23T14:13:32.182Z,100203.91
2023-04-23T14:16:00.114Z,100194.69
2023-04-23T14:18:28.822Z,100194.78
2023-04-23T14:20:55.413Z,100196.25
2023-04-23T14:23:27.660Z,100190.06
2023-04-23T14:26:01.727Z,100196.75
2023-04-23T14:28:40.803Z,100178.81
2023-04-23T14:31:07.775Z,100185.78
2023-04-23T14:33:34.925Z,100181.44
2023-04-23T14:36:01.583Z,100171.69
2023-04-23T14:38:28.332Z,100180.53
2023-04-23T14:40:55.927Z,100174.59
2023-04-23T14:43:23.474Z,100169.97
2023-04-23T14:45:51.209Z,100163.47
2023-04-23T14:48:17.912Z,100173.59
2023-04-23T14:50:44.821Z,100169.13
2023-04-23T14:53:11.518Z,100170.25
2023-04-23T14:55:39.980Z,100164.44
2023-04-23T14:58:07.120Z,100159.78
2023-04-23T15:00:34.001Z,100155.81
2023-04-23T15:03:02.729Z,100145.56
2023-04-23T15:05:29.571Z,100152.16
2023-04-23T15:07:56.411Z,100147.47
2023-04-23T15:10:23.496Z,100146.78
2023-04-23T15:13:16.288Z,100144.84
2023-04-23T15:15:48.735Z,100136.09
2023-04-23T15:18:16.161Z,100130.47
2023-04-23T15:20:44.367Z,100128.59
2023-04-23T15:23:11.386Z,100130.28
2023-04-23T15:25:39.399Z,100120.50
2023-04-23T15:28:16.516Z,100110.66
2023-04-23T15:30:44.916Z,100115.91
2023-04-23T15:33:33.545Z,100123.28
2023-04-23T15:36:00.192Z,100127.47
2023-04-23T15:38:27.106Z,100119.91
2023-04-23T15:40:56.197Z,100130.06
2023-04-23T15:43:24.135Z,100118.63
2023-04-23T15:45:52.961Z,100117.75
2023-04-23T15:48:19.585Z,100114.00
2023-04-23T15:50:46.255Z,100126.56
2023-04-23T15:53:12.889Z,100123.97
2023-04-23T15:55:39.844Z,100120.63
2023-04-23T15:58:07.601Z,100123.47
2023-04-23T16:00:34.227Z,100119.84
2023-04-23T16:03:01.566Z,100111.69
2023-04-23T16:05:29.926Z,100109.88
2023-04-23T16:07:56.580Z,100107.69
2023-04-23T16:10:23.440Z,100101.59
2023-04-23T16:12:50.771Z,100100.78
2023-04-23T16:15:17.426Z,100095.94
2023-04-23T16:17:44.211Z,100103.88
2023-04-23T16:20:11.132Z,100085.28
2023-04-23T16:22:37.755Z,100090.09
2023-04-23T16:25:05.376Z,100094.63
2023-04-23T16:27:32.139Z,100089.19
2023-04-23T16:29:58.813Z,100089.16
2023-04-23T16:32:25.866Z,100085.88
2023-04-23T16:34:52.473Z,100079.56
2023-04-23T16:37:19.092Z,100077.41
2023-04-23T16:39:45.922Z,100079.34
2023-04-23T16:42:12.568Z,100072.56
2023-04-23T16:44:39.285Z,100072.00
2023-04-23T16:47:05.982Z,100074.88
2023-04-23T16:49:32.699Z,100067.72
2023-04-23T16:51:59.322Z,100060.03
2023-04-23T16:54:26.383Z,100055.66
2023-04-23T16:56:52.968Z,100050.28
2023-04-23T16:59:19.733Z,100051.38
2023-04-23T17:01:46.392Z,100055.78
2023-04-23T17:04:13.363Z,100046.16
2023-04-23T17:06:40.099Z,100044.56
2023-04-23T17:09:08.794Z,100048.13
2023-04-23T17:11:36.064Z,100048.19
2023-04-23T17:14:05.047Z,100040.03
2023-04-23T17:16:31.839Z,100042.16
2023-04-23T17:18:58.584Z,100047.06
2023-04-23T17:21:25.940Z,100035.84
2023-04-23T17:23:52.798Z,100033.34
2023-04-23T17:26:19.408Z,100025.28
2023-04-23T17:28:46.139Z,100028.91
2023-04-23T17:31:13.259Z,100016.69
2023-04-23T17:33:40.083Z,100024.16
2023-04-23T17:36:06.842Z,100026.19
2023-04-23T17:38:34.434Z,100019.97
2023-04-23T17:41:01.118Z,100020.81
2023-04-23T17:43:27.990Z,100022.78
2023-04-23T17:45:54.937Z,100019.44
2023-04-23T17:48:22.994Z,100016.66
2023-04-23T17:50:50.224Z,100014.94
2023-04-23T17:53:16.913Z,100013.22
2023-04-23T17:55:43.620Z,100009.53
2023-04-23T17:58:10.216Z,100003.88
2023-04-23T18:00:39.536Z,100007.06
2023-04-23T18:03:07.457Z,100026.56
2023-04-23T18:05:34.319Z,100020.13
2023-04-23T18:08:01.404Z,100016.56
2023-04-23T18:10:29.287Z,100016.25
2023-04-23T18:12:56.126Z,100011.88
2023-04-23T18:15:22.749Z,100020.53
2023-04-23T18:17:50.341Z,100011.06
2023-04-23T18:20:18.919Z,100014.00
2023-04-23T18:22:45.519Z,100010.56
2023-04-23T18:25:12.832Z,100021.22
2023-04-23T18:27:39.845Z,100015.38
2023-04-23T18:30:08.225Z,100016.66
2023-04-23T18:32:40.058Z,100029.50
2023-04-23T18:35:09.058Z,100027.81
2023-04-23T18:37:47.116Z,100034.44
2023-04-23T18:40:13.752Z,100023.38
2023-04-23T18:42:40.393Z,100031.09
2023-04-23T18:45:07.527Z,100028.84
2023-04-23T18:47:44.145Z,100024.50
2023-04-23T18:50:31.693Z,100022.81
2023-04-23T18:52:58.403Z,100022.06
2023-04-23T18:55:25.003Z,100020.13
2023-04-23T18:57:51.680Z,100024.22
2023-04-23T19:00:18.444Z,100025.59
2023-04-23T19:02:45.264Z,100028.84
2023-04-23T19:05:12.066Z,100020.06
2023-04-23T19:07:41.219Z,100018.06
2023-04-23T19:10:08.626Z,100021.34
2023-04-23T19:12:35.299Z,100024.63
2023-04-23T19:15:01.891Z,100019.03
2023-04-23T19:17:28.548Z,100024.91
2023-04-23T19:19:55.155Z,100022.91
2023-04-23T19:22:24.984Z,100020.94
2023-04-23T19:24:51.595Z,100024.91
2023-04-23T19:27:18.282Z,100024.56
2023-04-23T19:29:45.899Z,100013.97
2023-04-23T19:32:12.525Z,100010.44
2023-04-23T19:34:39.083Z,100009.84
2023-04-23T19:37:06.661Z,100004.28
2023-04-23T19:39:33.304Z,100012.38
2023-04-23T19:42:02.672Z,100000.50
2023-04-23T19:44:29.392Z,100000.03
2023-04-23T19:46:56.432Z,100003.13
2023-04-23T19:49:23.180Z,100012.06
2023-04-23T19:51:53.340Z,100003.63
2023-04-23T19:54:20.268Z,99996.25
2023-04-23T19:56:47.628Z,99993.03
2023-04-23T19:59:15.366Z,99998.66
2023-04-23T20:01:42.024Z,99999.00
2023-04-23T20:04:09.423Z,99994.13
2023-04-23T20:06:36.595Z,99990.91
2023-04-23T20:09:18.091Z,99992.91
2023-04-23T20:11:46.076Z,99989.81
2023-04-23T20:14:13.723Z,99985.56
2023-04-23T20:16:41.505Z,99991.84
2023-04-23T20:19:11.788Z,99985.44
2023-04-23T20:21:39.541Z,99988.16
2023-04-23T20:24:10.527Z,99991.25
2023-04-23T20:26:38.606Z,99984.72
2023-04-23T20:29:05.648Z,99982.34
2023-04-23T20:31:33.279Z,99984.94
2023-04-23T20:34:00.510Z,99985.19
2023-04-23T20:36:31.703Z,99969.31
2023-04-23T20:39:00.137Z,99973.66
2023-04-23T20:41:30.930Z,99967.81
2023-04-23T20:43:59.047Z,99961.22
2023-04-23T20:46:26.619Z,99957.78
2023-04-23T20:48:53.912Z,99959.81
2023-04-23T20:51:20.820Z,99959.34
2023-04-23T20:53:47.832Z,99952.94
2023-04-23T20:56:14.603Z,99953.72
2023-04-23T20:58:41.680Z,99947.66
2023-04-23T21:01:11.387Z,99938.91
2023-04-23T21:03:39.206Z,99941.16
2023-04-23T21:06:08.536Z,99932.59
2023-04-23T21:08:37.868Z,99926.97
2023-04-23T21:11:05.067Z,99930.31
2023-04-23T21:13:31.709Z,99919.13
2023-04-23T21:15:58.322Z,99921.38
2023-04-23T21:18:24.974Z,99917.91
2023-04-23T21:20:51.568Z,99912.31
2023-04-23T21:23:18.124Z,99901.50
2023-04-23T21:25:44.737Z,99903.66
2023-04-23T21:28:11.486Z,99890.25
2023-04-23T21:30:41.018Z,99894.91
2023-04-23T21:33:07.706Z,99889.66
2023-04-23T21:35:34.277Z,99896.03
2023-04-23T21:38:01.716Z,99893.81
2023-04-23T21:40:28.463Z,99892.00
2023-04-23T21:42:55.224Z,99888.16
2023-04-23T21:45:21.848Z,99890.09
2023-04-23T21:47:48.555Z,99889.97
2023-04-23T21:50:17.527Z,99879.84
2023-04-23T21:52:44.158Z,99884.38
2023-04-23T21:55:12.509Z,99889.16
2023-04-23T21:57:39.246Z,99885.38
2023-04-23T22:00:07.115Z,99882.75
2023-04-23T22:02:33.935Z,99885.50
2023-04-23T22:05:00.616Z,99886.19
2023-04-23T22:07:29.478Z,99899.16
2023-04-23T22:09:57.250Z,99899.00
2023-04-23T22:12:23.939Z,99891.41
2023-04-23T22:14:50.534Z,99900.44
2023-04-23T22:17:18.602Z,99894.59
2023-04-23T22:19:45.448Z,99906.31
2023-04-23T22:22:12.180Z,99903.34
2023-04-23T22:24:38.741Z,99893.50
2023-04-23T22:27:05.462Z,99891.66
2023-04-23T22:29:32.073Z,99899.28
2023-04-23T22:31:58.842Z,99898.16
2023-04-23T22:34:25.688Z,99899.03
2023-04-23T22:36:52.337Z,99891.41
2023-04-23T22:39:19.022Z,99890.72
2023-04-23T22:41:45.628Z,99887.00
2023-04-23T22:44:12.239Z,99881.28
2023-04-23T22:46:39.158Z,99878.38
2023-04-23T22:49:08.228Z,99867.13
2023-04-23T22:51:35.256Z,99869.28
2023-04-23T22:54:01.853Z,99861.91
2023-04-23T22:56:28.565Z,99854.53
2023-04-23T22:58:55.204Z,99855.88
2023-04-23T23:01:21.833Z,99854.59
2023-04-23T23:03:48.492Z,99839.38
2023-04-23T23:06:15.316Z,99833.69
2023-04-23T23:08:42.020Z,99828.69
2023-04-23T23:11:08.730Z,99819.88
2023-04-23T23:13:35.400Z,99818.03
2023-04-23T23:16:05.702Z,99821.25
2023-04-23T23:18:32.821Z,99822.25
2023-04-23T23:20:59.518Z,99817.47
2023-04-23T23:23:26.340Z,99817.13
2023-04-23T23:25:52.942Z,99810.16
2023-04-23T23:28:19.538Z,99812.78
2023-04-23T23:30:46.497Z,99800.72
2023-04-23T23:33:13.081Z,99803.47
2023-04-23T23:35:41.144Z,99793.38
2023-04-23T23:38:09.298Z,99790.50
2023-04-23T23:40:35.882Z,99792.66
2023-04-23T23:43:08.668Z,99781.75
2023-04-23T23:45:35.256Z,99785.78
2023-04-23T23:48:02.119Z,99777.22
2023-04-23T23:50:28.726Z,99776.84
2023-04-23T23:52:55.482Z,99771.03
2023-04-23T23:55:22.097Z,99772.44
2023-04-23T23:57:48.680Z,99768.53
